sensor_id;sensor_type;location;lat;lon;timestamp;temperature;humidity
20231;DHT22;10274;49.022;9.338;2022-12-07T00:01:50;3.90;99.90
20231;DHT22;10274;49.022;9.338;2022-12-07T00:04:18;3.80;99.90
20231;DHT22;10274;49.022;9.338;2022-12-07T00:06:46;3.80;99.90
20231;DHT22;10274;49.022;9.338;2022-12-07T00:09:15;3.90;99.90
20231;DHT22;10274;49.022;9.338;2022-12-07T00:11:44;3.90;99.90
20231;DHT22;10274;49.022;9.338;2022-12-07T00:14:13;3.90;99.90
20231;DHT22;10274;49.022;9.338;2022-12-07T00:16:40;3.80;99.90
20231;DHT22;10274;49.022;9.338;2022-12-07T00:19:08;3.80;99.90
20231;DHT22;10274;49.022;9.338;2022-12-07T00:21:35;3.80;99.90
20231;DHT22;10274;49.022;9.338;2022-12-07T00:24:04;3.80;99.90
20231;DHT22;10274;49.022;9.338;2022-12-07T00:26:32;3.70;99.90
20231;DHT22;10274;49.022;9.338;2022-12-07T00:29:02;3.70;99.90
20231;DHT22;10274;49.022;9.338;2022-12-07T00:31:32;3.60;99.90
20231;DHT22;10274;49.022;9.338;2022-12-07T00:34:00;3.60;99.90
20231;DHT22;10274;49.022;9.338;2022-12-07T00:36:27;3.60;99.90
20231;DHT22;10274;49.022;9.338;2022-12-07T00:38:55;3.50;99.90
20231;DHT22;10274;49.022;9.338;2022-12-07T00:41:25;3.60;99.90
20231;DHT22;10274;49.022;9.338;2022-12-07T00:43:52;3.60;99.90
20231;DHT22;10274;49.022;9.338;2022-12-07T00:46:21;3.60;99.90
20231;DHT22;10274;49.022;9.338;2022-12-07T00:48:48;3.60;99.90
20231;DHT22;10274;49.022;9.338;2022-12-07T00:51:16;3.60;99.90
20231;DHT22;10274;49.022;9.338;2022-12-07T00:53:44;3.70;99.90
20231;DHT22;10274;49.022;9.338;2022-12-07T00:56:13;3.50;99.90
20231;DHT22;10274;49.022;9.338;2022-12-07T00:58:40;3.50;99.90
20231;DHT22;10274;49.022;9.338;2022-12-07T01:01:08;3.50;99.90
20231;DHT22;10274;49.022;9.338;2022-12-07T01:03:37;3.40;99.90
20231;DHT22;10274;49.022;9.338;2022-12-07T01:06:05;3.50;99.90
20231;DHT22;10274;49.022;9.338;2022-12-07T01:08:32;3.50;99.90
20231;DHT22;10274;49.022;9.338;2022-12-07T01:11:00;3.50;99.90
20231;DHT22;10274;49.022;9.338;2022-12-07T01:13:27;3.50;99.90
20231;DHT22;10274;49.022;9.338;2022-12-07T01:15:57;3.40;99.90
20231;DHT22;10274;49.022;9.338;2022-12-07T01:18:25;3.40;99.90
20231;DHT22;10274;49.022;9.338;2022-12-07T01:21:10;3.40;99.90
20231;DHT22;10274;49.022;9.338;2022-12-07T01:23:37;3.30;99.90
20231;DHT22;10274;49.022;9.338;2022-12-07T01:26:07;3.30;99.90
20231;DHT22;10274;49.022;9.338;2022-12-07T01:28:34;3.30;99.90
20231;DHT22;10274;49.022;9.338;2022-12-07T01:31:02;3.30;99.90
20231;DHT22;10274;49.022;9.338;2022-12-07T01:33:31;3.30;99.90
20231;DHT22;10274;49.022;9.338;2022-12-07T01:36:04;3.40;99.90
20231;DHT22;10274;49.022;9.338;2022-12-07T01:38:32;3.40;99.90
20231;DHT22;10274;49.022;9.338;2022-12-07T01:41:00;3.30;99.90
20231;DHT22;10274;49.022;9.338;2022-12-07T01:43:28;3.30;99.90
20231;DHT22;10274;49.022;9.338;2022-12-07T01:45:56;3.30;99.90
20231;DHT22;10274;49.022;9.338;2022-12-07T01:48:26;3.20;99.90
20231;DHT22;10274;49.022;9.338;2022-12-07T01:50:56;3.20;99.90
20231;DHT22;10274;49.022;9.338;2022-12-07T01:53:27;3.30;99.90
20231;DHT22;10274;49.022;9.338;2022-12-07T01:55:56;3.20;99.90
20231;DHT22;10274;49.022;9.338;2022-12-07T01:58:24;3.20;99.90
20231;DHT22;10274;49.022;9.338;2022-12-07T02:00:51;3.10;99.90
20231;DHT22;10274;49.022;9.338;2022-12-07T02:03:21;3.20;99.90
20231;DHT22;10274;49.022;9.338;2022-12-07T02:05:49;3.30;99.90
20231;DHT22;10274;49.022;9.338;2022-12-07T02:08:16;3.30;99.90
20231;DHT22;10274;49.022;9.338;2022-12-07T02:10:45;3.30;99.90
20231;DHT22;10274;49.022;9.338;2022-12-07T02:13:14;3.30;99.90
20231;DHT22;10274;49.022;9.338;2022-12-07T02:15:51;3.30;99.90
20231;DHT22;10274;49.022;9.338;2022-12-07T02:18:32;3.30;99.90
20231;DHT22;10274;49.022;9.338;2022-12-07T02:21:07;3.40;99.90
20231;DHT22;10274;49.022;9.338;2022-12-07T02:23:45;3.40;99.90
20231;DHT22;10274;49.022;9.338;2022-12-07T02:26:39;3.40;99.90
20231;DHT22;10274;49.022;9.338;2022-12-07T02:29:14;3.20;99.90
20231;DHT22;10274;49.022;9.338;2022-12-07T02:31:48;3.20;99.90
20231;DHT22;10274;49.022;9.338;2022-12-07T02:34:21;3.10;99.90
20231;DHT22;10274;49.022;9.338;2022-12-07T02:36:52;3.20;99.90
20231;DHT22;10274;49.022;9.338;2022-12-07T02:39:26;3.20;99.90
20231;DHT22;10274;49.022;9.338;2022-12-07T02:41:56;3.20;99.90
20231;DHT22;10274;49.022;9.338;2022-12-07T02:44:28;3.20;99.90
20231;DHT22;10274;49.022;9.338;2022-12-07T02:46:58;3.10;99.90
20231;DHT22;10274;49.022;9.338;2022-12-07T02:49:27;3.20;99.90
20231;DHT22;10274;49.022;9.338;2022-12-07T02:51:54;3.10;99.90
20231;DHT22;10274;49.022;9.338;2022-12-07T02:54:21;3.00;99.90
20231;DHT22;10274;49.022;9.338;2022-12-07T02:56:50;2.90;99.90
20231;DHT22;10274;49.022;9.338;2022-12-07T02:59:28;2.80;99.90
20231;DHT22;10274;49.022;9.338;2022-12-07T03:02:06;2.70;99.90
20231;DHT22;10274;49.022;9.338;2022-12-07T03:04:43;2.60;99.90
20231;DHT22;10274;49.022;9.338;2022-12-07T03:07:18;2.40;99.90
20231;DHT22;10274;49.022;9.338;2022-12-07T03:09:53;2.50;99.90
20231;DHT22;10274;49.022;9.338;2022-12-07T03:12:28;2.50;99.90
20231;DHT22;10274;49.022;9.338;2022-12-07T03:15:01;2.60;99.90
20231;DHT22;10274;49.022;9.338;2022-12-07T03:17:32;2.70;99.90
20231;DHT22;10274;49.022;9.338;2022-12-07T03:20:04;2.80;99.90
20231;DHT22;10274;49.022;9.338;2022-12-07T03:22:34;2.80;99.90
20231;DHT22;10274;49.022;9.338;2022-12-07T03:25:04;2.70;99.90
20231;DHT22;10274;49.022;9.338;2022-12-07T03:27:35;2.80;99.90
20231;DHT22;10274;49.022;9.338;2022-12-07T03:30:07;2.90;99.90
20231;DHT22;10274;49.022;9.338;2022-12-07T03:32:37;3.00;99.90
20231;DHT22;10274;49.022;9.338;2022-12-07T03:35:09;3.00;99.90
20231;DHT22;10274;49.022;9.338;2022-12-07T03:37:42;2.80;99.90
20231;DHT22;10274;49.022;9.338;2022-12-07T03:40:14;2.80;99.90
20231;DHT22;10274;49.022;9.338;2022-12-07T03:42:42;2.90;99.90
20231;DHT22;10274;49.022;9.338;2022-12-07T03:45:11;3.00;99.90
20231;DHT22;10274;49.022;9.338;2022-12-07T03:47:45;3.00;99.90
20231;DHT22;10274;49.022;9.338;2022-12-07T03:50:16;3.10;99.90
20231;DHT22;10274;49.022;9.338;2022-12-07T03:52:46;3.10;99.90
20231;DHT22;10274;49.022;9.338;2022-12-07T03:55:20;3.10;99.90
20231;DHT22;10274;49.022;9.338;2022-12-07T03:57:51;3.20;99.90
20231;DHT22;10274;49.022;9.338;2022-12-07T04:00:21;3.30;99.90
20231;DHT22;10274;49.022;9.338;2022-12-07T04:02:51;3.30;99.90
20231;DHT22;10274;49.022;9.338;2022-12-07T04:05:18;3.20;99.90
20231;DHT22;10274;49.022;9.338;2022-12-07T04:07:45;3.30;99.90
20231;DHT22;10274;49.022;9.338;2022-12-07T04:10:12;3.30;99.90
20231;DHT22;10274;49.022;9.338;2022-12-07T04:12:39;3.40;99.90
20231;DHT22;10274;49.022;9.338;2022-12-07T04:15:07;3.40;99.90
20231;DHT22;10274;49.022;9.338;2022-12-07T04:17:36;3.40;99.90
20231;DHT22;10274;49.022;9.338;2022-12-07T04:20:03;3.40;99.90
20231;DHT22;10274;49.022;9.338;2022-12-07T04:22:30;3.40;99.90
20231;DHT22;10274;49.022;9.338;2022-12-07T04:24:57;3.40;99.90
20231;DHT22;10274;49.022;9.338;2022-12-07T04:27:24;3.40;99.90
20231;DHT22;10274;49.022;9.338;2022-12-07T04:29:50;3.50;99.90
20231;DHT22;10274;49.022;9.338;2022-12-07T04:32:17;3.50;99.90
20231;DHT22;10274;49.022;9.338;2022-12-07T04:34:45;3.50;99.90
20231;DHT22;10274;49.022;9.338;2022-12-07T04:37:12;3.60;99.90
20231;DHT22;10274;49.022;9.338;2022-12-07T04:39:38;3.60;99.90
20231;DHT22;10274;49.022;9.338;2022-12-07T04:42:05;3.60;99.90
20231;DHT22;10274;49.022;9.338;2022-12-07T04:44:32;3.60;99.90
20231;DHT22;10274;49.022;9.338;2022-12-07T04:46:59;3.60;99.90
20231;DHT22;10274;49.022;9.338;2022-12-07T04:49:25;3.60;99.90
20231;DHT22;10274;49.022;9.338;2022-12-07T04:51:54;3.60;99.90
20231;DHT22;10274;49.022;9.338;2022-12-07T04:54:20;3.60;99.90
20231;DHT22;10274;49.022;9.338;2022-12-07T04:56:47;3.50;99.90
20231;DHT22;10274;49.022;9.338;2022-12-07T04:59:15;3.40;99.90
20231;DHT22;10274;49.022;9.338;2022-12-07T05:01:42;3.40;99.90
20231;DHT22;10274;49.022;9.338;2022-12-07T05:04:09;3.50;99.90
20231;DHT22;10274;49.022;9.338;2022-12-07T05:06:36;3.40;99.90
20231;DHT22;10274;49.022;9.338;2022-12-07T05:09:05;3.30;99.90
20231;DHT22;10274;49.022;9.338;2022-12-07T05:11:31;3.20;99.90
20231;DHT22;10274;49.022;9.338;2022-12-07T05:14:06;3.20;99.90
20231;DHT22;10274;49.022;9.338;2022-12-07T05:16:33;3.20;99.90
20231;DHT22;10274;49.022;9.338;2022-12-07T05:19:00;3.20;99.90
20231;DHT22;10274;49.022;9.338;2022-12-07T05:21:27;3.00;99.90
20231;DHT22;10274;49.022;9.338;2022-12-07T05:23:53;2.90;99.90
20231;DHT22;10274;49.022;9.338;2022-12-07T05:26:21;2.90;99.90
20231;DHT22;10274;49.022;9.338;2022-12-07T05:28:50;3.00;99.90
20231;DHT22;10274;49.022;9.338;2022-12-07T05:31:17;3.10;99.90
20231;DHT22;10274;49.022;9.338;2022-12-07T05:33:44;3.10;99.90
20231;DHT22;10274;49.022;9.338;2022-12-07T05:36:11;3.00;99.90
20231;DHT22;10274;49.022;9.338;2022-12-07T05:38:38;3.00;99.90
20231;DHT22;10274;49.022;9.338;2022-12-07T05:41:06;3.10;99.90
20231;DHT22;10274;49.022;9.338;2022-12-07T05:43:34;3.10;99.90
20231;DHT22;10274;49.022;9.338;2022-12-07T05:46:01;3.10;99.90
20231;DHT22;10274;49.022;9.338;2022-12-07T05:48:28;3.00;99.90
20231;DHT22;10274;49.022;9.338;2022-12-07T05:50:54;3.00;99.90
20231;DHT22;10274;49.022;9.338;2022-12-07T05:53:21;2.80;99.90
20231;DHT22;10274;49.022;9.338;2022-12-07T05:55:48;2.80;99.90
20231;DHT22;10274;49.022;9.338;2022-12-07T05:58:14;2.90;99.90
20231;DHT22;10274;49.022;9.338;2022-12-07T06:01:00;2.80;99.90
20231;DHT22;10274;49.022;9.338;2022-12-07T06:03:27;2.70;99.90
20231;DHT22;10274;49.022;9.338;2022-12-07T06:05:53;2.70;99.90
20231;DHT22;10274;49.022;9.338;2022-12-07T06:08:20;2.70;99.90
20231;DHT22;10274;49.022;9.338;2022-12-07T06:10:47;2.70;99.90
20231;DHT22;10274;49.022;9.338;2022-12-07T06:13:36;2.90;99.90
20231;DHT22;10274;49.022;9.338;2022-12-07T06:16:03;2.90;99.90
20231;DHT22;10274;49.022;9.338;2022-12-07T06:18:30;2.90;99.90
20231;DHT22;10274;49.022;9.338;2022-12-07T06:20:57;2.90;99.90
20231;DHT22;10274;49.022;9.338;2022-12-07T06:23:23;2.90;99.90
20231;DHT22;10274;49.022;9.338;2022-12-07T06:25:50;2.80;99.90
20231;DHT22;10274;49.022;9.338;2022-12-07T06:28:17;2.70;99.90
20231;DHT22;10274;49.022;9.338;2022-12-07T06:30:43;2.70;99.90
20231;DHT22;10274;49.022;9.338;2022-12-07T06:33:11;2.70;99.90
20231;DHT22;10274;49.022;9.338;2022-12-07T06:35:38;2.60;99.90
20231;DHT22;10274;49.022;9.338;2022-12-07T06:38:05;2.60;99.90
20231;DHT22;10274;49.022;9.338;2022-12-07T06:40:31;2.70;99.90
20231;DHT22;10274;49.022;9.338;2022-12-07T06:42:58;2.80;99.90
20231;DHT22;10274;49.022;9.338;2022-12-07T06:45:25;2.80;99.90
20231;DHT22;10274;49.022;9.338;2022-12-07T06:47:52;2.70;99.90
20231;DHT22;10274;49.022;9.338;2022-12-07T06:50:20;2.70;99.90
20231;DHT22;10274;49.022;9.338;2022-12-07T06:52:46;2.70;99.90
20231;DHT22;10274;49.022;9.338;2022-12-07T06:55:13;2.70;99.90
20231;DHT22;10274;49.022;9.338;2022-12-07T06:57:40;2.70;99.90
20231;DHT22;10274;49.022;9.338;2022-12-07T07:00:07;2.70;99.90
20231;DHT22;10274;49.022;9.338;2022-12-07T07:02:34;2.70;99.90
20231;DHT22;10274;49.022;9.338;2022-12-07T07:05:01;2.70;99.90
20231;DHT22;10274;49.022;9.338;2022-12-07T07:07:29;2.60;99.90
20231;DHT22;10274;49.022;9.338;2022-12-07T07:09:56;2.60;99.90
20231;DHT22;10274;49.022;9.338;2022-12-07T07:12:23;2.60;99.90
20231;DHT22;10274;49.022;9.338;2022-12-07T07:14:49;2.60;99.90
20231;DHT22;10274;49.022;9.338;2022-12-07T07:17:16;2.50;99.90
20231;DHT22;10274;49.022;9.338;2022-12-07T07:19:43;2.60;99.90
20231;DHT22;10274;49.022;9.338;2022-12-07T07:22:09;2.60;99.90
20231;DHT22;10274;49.022;9.338;2022-12-07T07:24:37;2.60;99.90
20231;DHT22;10274;49.022;9.338;2022-12-07T07:27:04;2.70;99.90
20231;DHT22;10274;49.022;9.338;2022-12-07T07:29:31;2.70;99.90
20231;DHT22;10274;49.022;9.338;2022-12-07T07:31:57;2.80;99.90
20231;DHT22;10274;49.022;9.338;2022-12-07T07:34:24;2.80;99.90
20231;DHT22;10274;49.022;9.338;2022-12-07T07:36:51;2.90;99.90
20231;DHT22;10274;49.022;9.338;2022-12-07T07:39:18;2.90;99.90
20231;DHT22;10274;49.022;9.338;2022-12-07T07:41:46;3.00;99.90
20231;DHT22;10274;49.022;9.338;2022-12-07T07:44:13;3.00;99.90
20231;DHT22;10274;49.022;9.338;2022-12-07T07:46:40;3.00;99.90
20231;DHT22;10274;49.022;9.338;2022-12-07T07:49:06;3.00;99.90
20231;DHT22;10274;49.022;9.338;2022-12-07T07:51:33;3.00;99.90
20231;DHT22;10274;49.022;9.338;2022-12-07T07:54:00;3.10;99.90
20231;DHT22;10274;49.022;9.338;2022-12-07T07:56:27;3.10;99.90
20231;DHT22;10274;49.022;9.338;2022-12-07T07:58:55;3.30;99.90
20231;DHT22;10274;49.022;9.338;2022-12-07T08:01:22;3.30;99.90
20231;DHT22;10274;49.022;9.338;2022-12-07T08:03:49;3.20;99.90
20231;DHT22;10274;49.022;9.338;2022-12-07T08:06:16;3.30;99.90
20231;DHT22;10274;49.022;9.338;2022-12-07T08:08:42;3.30;99.90
20231;DHT22;10274;49.022;9.338;2022-12-07T08:11:09;3.30;99.90
20231;DHT22;10274;49.022;9.338;2022-12-07T08:13:36;3.30;99.90
20231;DHT22;10274;49.022;9.338;2022-12-07T08:16:06;3.40;97.10
20231;DHT22;10274;49.022;9.338;2022-12-07T08:18:35;3.50;97.50
20231;DHT22;10274;49.022;9.338;2022-12-07T08:21:02;3.50;98.40
20231;DHT22;10274;49.022;9.338;2022-12-07T08:23:30;3.50;95.10
20231;DHT22;10274;49.022;9.338;2022-12-07T08:26:00;3.60;98.70
20231;DHT22;10274;49.022;9.338;2022-12-07T08:28:27;3.70;99.90
20231;DHT22;10274;49.022;9.338;2022-12-07T08:30:59;3.60;89.80
20231;DHT22;10274;49.022;9.338;2022-12-07T08:33:27;3.60;17.30
20231;DHT22;10274;49.022;9.338;2022-12-07T08:35:54;3.80;9.80
20231;DHT22;10274;49.022;9.338;2022-12-07T08:38:21;3.70;28.10
20231;DHT22;10274;49.022;9.338;2022-12-07T08:40:53;3.70;1.00
20231;DHT22;10274;49.022;9.338;2022-12-07T08:43:20;3.70;1.00
20231;DHT22;10274;49.022;9.338;2022-12-07T08:45:48;3.70;1.00
20231;DHT22;10274;49.022;9.338;2022-12-07T08:48:15;3.80;1.00
20231;DHT22;10274;49.022;9.338;2022-12-07T08:50:48;3.80;1.00
20231;DHT22;10274;49.022;9.338;2022-12-07T08:53:15;3.80;1.00
20231;DHT22;10274;49.022;9.338;2022-12-07T08:55:44;3.90;1.00
20231;DHT22;10274;49.022;9.338;2022-12-07T08:58:11;3.90;1.00
20231;DHT22;10274;49.022;9.338;2022-12-07T09:00:38;3.90;1.00
20231;DHT22;10274;49.022;9.338;2022-12-07T09:03:04;3.90;1.00
20231;DHT22;10274;49.022;9.338;2022-12-07T09:05:32;3.90;1.00
20231;DHT22;10274;49.022;9.338;2022-12-07T09:08:01;4.00;1.00
20231;DHT22;10274;49.022;9.338;2022-12-07T09:10:28;4.00;1.00
20231;DHT22;10274;49.022;9.338;2022-12-07T09:12:55;4.00;1.00
20231;DHT22;10274;49.022;9.338;2022-12-07T09:15:26;4.00;1.00
20231;DHT22;10274;49.022;9.338;2022-12-07T09:17:52;4.10;1.00
20231;DHT22;10274;49.022;9.338;2022-12-07T09:20:19;4.20;1.00
20231;DHT22;10274;49.022;9.338;2022-12-07T09:22:46;4.20;1.00
20231;DHT22;10274;49.022;9.338;2022-12-07T09:25:14;4.20;1.00
20231;DHT22;10274;49.022;9.338;2022-12-07T09:27:41;4.30;1.00
20231;DHT22;10274;49.022;9.338;2022-12-07T09:30:08;4.30;1.00
20231;DHT22;10274;49.022;9.338;2022-12-07T09:32:35;4.40;1.00
20231;DHT22;10274;49.022;9.338;2022-12-07T09:35:02;4.40;1.00
20231;DHT22;10274;49.022;9.338;2022-12-07T09:37:29;4.40;1.00
20231;DHT22;10274;49.022;9.338;2022-12-07T09:39:57;4.40;1.00
20231;DHT22;10274;49.022;9.338;2022-12-07T09:42:29;4.40;1.00
20231;DHT22;10274;49.022;9.338;2022-12-07T09:44:59;4.40;1.00
20231;DHT22;10274;49.022;9.338;2022-12-07T09:47:27;4.40;1.00
20231;DHT22;10274;49.022;9.338;2022-12-07T09:49:55;4.40;1.00
20231;DHT22;10274;49.022;9.338;2022-12-07T09:52:27;4.40;1.00
20231;DHT22;10274;49.022;9.338;2022-12-07T09:54:54;4.50;1.00
20231;DHT22;10274;49.022;9.338;2022-12-07T09:57:28;4.50;1.00
20231;DHT22;10274;49.022;9.338;2022-12-07T09:59:57;4.40;1.00
20231;DHT22;10274;49.022;9.338;2022-12-07T10:02:35;4.40;1.00
20231;DHT22;10274;49.022;9.338;2022-12-07T10:05:04;4.40;1.00
20231;DHT22;10274;49.022;9.338;2022-12-07T10:07:31;4.40;1.00
20231;DHT22;10274;49.022;9.338;2022-12-07T10:09:58;4.30;1.00
20231;DHT22;10274;49.022;9.338;2022-12-07T10:12:24;4.30;1.00
20231;DHT22;10274;49.022;9.338;2022-12-07T10:14:59;4.30;1.00
20231;DHT22;10274;49.022;9.338;2022-12-07T10:17:31;4.40;1.00
20231;DHT22;10274;49.022;9.338;2022-12-07T10:20:24;4.30;1.00
20231;DHT22;10274;49.022;9.338;2022-12-07T10:22:56;4.30;1.00
20231;DHT22;10274;49.022;9.338;2022-12-07T10:25:26;4.30;1.00
20231;DHT22;10274;49.022;9.338;2022-12-07T10:28:01;4.30;1.00
20231;DHT22;10274;49.022;9.338;2022-12-07T10:30:30;4.40;1.00
20231;DHT22;10274;49.022;9.338;2022-12-07T10:32:58;4.30;1.00
20231;DHT22;10274;49.022;9.338;2022-12-07T10:35:26;4.30;1.00
20231;DHT22;10274;49.022;9.338;2022-12-07T10:37:55;4.40;1.00
20231;DHT22;10274;49.022;9.338;2022-12-07T10:40:34;4.40;1.00
20231;DHT22;10274;49.022;9.338;2022-12-07T10:43:04;4.50;1.00
20231;DHT22;10274;49.022;9.338;2022-12-07T10:45:32;4.50;1.00
20231;DHT22;10274;49.022;9.338;2022-12-07T10:48:03;4.50;1.00
20231;DHT22;10274;49.022;9.338;2022-12-07T10:50:51;4.50;1.00
20231;DHT22;10274;49.022;9.338;2022-12-07T10:53:31;4.60;1.00
20231;DHT22;10274;49.022;9.338;2022-12-07T10:56:11;4.60;1.00
20231;DHT22;10274;49.022;9.338;2022-12-07T10:58:53;4.70;1.00
20231;DHT22;10274;49.022;9.338;2022-12-07T11:01:27;4.70;1.00
20231;DHT22;10274;49.022;9.338;2022-12-07T11:04:17;4.80;1.00
20231;DHT22;10274;49.022;9.338;2022-12-07T11:06:51;4.80;1.00
20231;DHT22;10274;49.022;9.338;2022-12-07T11:12:27;4.90;1.00
20231;DHT22;10274;49.022;9.338;2022-12-07T11:15:01;4.90;1.00
20231;DHT22;10274;49.022;9.338;2022-12-07T11:17:40;4.90;1.00
20231;DHT22;10274;49.022;9.338;2022-12-07T11:20:20;4.90;1.00
20231;DHT22;10274;49.022;9.338;2022-12-07T11:22:54;4.80;1.00
20231;DHT22;10274;49.022;9.338;2022-12-07T11:25:31;4.90;1.00
20231;DHT22;10274;49.022;9.338;2022-12-07T11:28:10;4.90;1.00
20231;DHT22;10274;49.022;9.338;2022-12-07T11:30:45;4.90;1.00
20231;DHT22;10274;49.022;9.338;2022-12-07T11:33:20;4.90;1.00
20231;DHT22;10274;49.022;9.338;2022-12-07T11:35:55;4.80;1.00
20231;DHT22;10274;49.022;9.338;2022-12-07T11:38:26;4.90;1.00
20231;DHT22;10274;49.022;9.338;2022-12-07T11:40:58;4.90;1.00
20231;DHT22;10274;49.022;9.338;2022-12-07T11:43:50;4.90;1.00
20231;DHT22;10274;49.022;9.338;2022-12-07T11:46:20;4.90;1.00
20231;DHT22;10274;49.022;9.338;2022-12-07T11:48:58;4.90;1.00
20231;DHT22;10274;49.022;9.338;2022-12-07T11:51:26;4.90;1.00
20231;DHT22;10274;49.022;9.338;2022-12-07T11:53:58;5.00;1.00
20231;DHT22;10274;49.022;9.338;2022-12-07T11:56:29;5.00;1.00
20231;DHT22;10274;49.022;9.338;2022-12-07T11:58:59;5.00;1.00
20231;DHT22;10274;49.022;9.338;2022-12-07T12:01:38;5.00;1.00
20231;DHT22;10274;49.022;9.338;2022-12-07T12:04:21;5.00;1.00
20231;DHT22;10274;49.022;9.338;2022-12-07T12:06:50;5.00;1.00
20231;DHT22;10274;49.022;9.338;2022-12-07T12:09:19;4.90;1.00
20231;DHT22;10274;49.022;9.338;2022-12-07T12:12:10;4.90;1.00
20231;DHT22;10274;49.022;9.338;2022-12-07T12:14:48;4.90;1.00
20231;DHT22;10274;49.022;9.338;2022-12-07T12:17:39;4.90;1.00
20231;DHT22;10274;49.022;9.338;2022-12-07T12:20:20;4.80;1.00
20231;DHT22;10274;49.022;9.338;2022-12-07T12:22:51;4.90;1.00
20231;DHT22;10274;49.022;9.338;2022-12-07T12:25:21;4.80;1.00
20231;DHT22;10274;49.022;9.338;2022-12-07T12:27:50;4.80;1.00
20231;DHT22;10274;49.022;9.338;2022-12-07T12:30:39;4.70;1.00
20231;DHT22;10274;49.022;9.338;2022-12-07T12:33:14;4.80;1.00
20231;DHT22;10274;49.022;9.338;2022-12-07T12:35:44;4.80;1.00
20231;DHT22;10274;49.022;9.338;2022-12-07T12:38:33;4.80;1.00
20231;DHT22;10274;49.022;9.338;2022-12-07T12:41:01;4.80;1.00
20231;DHT22;10274;49.022;9.338;2022-12-07T12:43:51;4.90;1.00
20231;DHT22;10274;49.022;9.338;2022-12-07T12:46:50;4.80;6.30
20231;DHT22;10274;49.022;9.338;2022-12-07T12:52:53;4.90;28.60
20231;DHT22;10274;49.022;9.338;2022-12-07T12:55:44;4.80;5.50
20231;DHT22;10274;49.022;9.338;2022-12-07T12:58:35;4.80;1.30
20231;DHT22;10274;49.022;9.338;2022-12-07T13:04:31;4.80;42.40
20231;DHT22;10274;49.022;9.338;2022-12-07T13:07:02;4.80;38.70
20231;DHT22;10274;49.022;9.338;2022-12-07T13:09:32;4.80;22.70
20231;DHT22;10274;49.022;9.338;2022-12-07T13:12:02;4.70;8.00
20231;DHT22;10274;49.022;9.338;2022-12-07T13:14:52;4.80;13.50
20231;DHT22;10274;49.022;9.338;2022-12-07T13:20:46;4.80;1.00
20231;DHT22;10274;49.022;9.338;2022-12-07T13:23:18;4.70;1.00
20231;DHT22;10274;49.022;9.338;2022-12-07T13:25:54;4.80;1.00
20231;DHT22;10274;49.022;9.338;2022-12-07T13:28:23;4.80;6.80
20231;DHT22;10274;49.022;9.338;2022-12-07T13:31:08;4.80;11.40
20231;DHT22;10274;49.022;9.338;2022-12-07T13:33:36;4.80;1.00
20231;DHT22;10274;49.022;9.338;2022-12-07T13:36:04;4.90;17.20
20231;DHT22;10274;49.022;9.338;2022-12-07T13:38:33;4.90;21.10
20231;DHT22;10274;49.022;9.338;2022-12-07T13:41:13;4.90;24.00
20231;DHT22;10274;49.022;9.338;2022-12-07T13:43:49;4.90;22.90
20231;DHT22;10274;49.022;9.338;2022-12-07T13:46:19;4.80;24.80
20231;DHT22;10274;49.022;9.338;2022-12-07T13:48:49;4.80;31.70
20231;DHT22;10274;49.022;9.338;2022-12-07T13:51:24;4.90;28.40
20231;DHT22;10274;49.022;9.338;2022-12-07T13:53:53;4.90;18.30
20231;DHT22;10274;49.022;9.338;2022-12-07T13:56:28;4.90;15.20
20231;DHT22;10274;49.022;9.338;2022-12-07T13:58:58;4.90;17.60
20231;DHT22;10274;49.022;9.338;2022-12-07T14:01:25;4.90;25.40
20231;DHT22;10274;49.022;9.338;2022-12-07T14:03:52;4.90;33.40
20231;DHT22;10274;49.022;9.338;2022-12-07T14:06:24;4.80;44.30
20231;DHT22;10274;49.022;9.338;2022-12-07T14:09:08;4.80;60.40
20231;DHT22;10274;49.022;9.338;2022-12-07T14:11:37;4.70;66.00
20231;DHT22;10274;49.022;9.338;2022-12-07T14:14:05;4.70;51.80
20231;DHT22;10274;49.022;9.338;2022-12-07T14:16:34;4.60;25.40
20231;DHT22;10274;49.022;9.338;2022-12-07T14:19:02;4.70;29.40
20231;DHT22;10274;49.022;9.338;2022-12-07T14:21:31;4.70;14.30
20231;DHT22;10274;49.022;9.338;2022-12-07T14:24:16;4.70;21.40
20231;DHT22;10274;49.022;9.338;2022-12-07T14:26:47;4.70;37.20
20231;DHT22;10274;49.022;9.338;2022-12-07T14:29:32;4.70;24.00
20231;DHT22;10274;49.022;9.338;2022-12-07T14:32:18;4.70;14.90
20231;DHT22;10274;49.022;9.338;2022-12-07T14:34:54;4.70;11.90
20231;DHT22;10274;49.022;9.338;2022-12-07T14:37:21;4.70;1.50
20231;DHT22;10274;49.022;9.338;2022-12-07T14:39:48;4.60;7.20
20231;DHT22;10274;49.022;9.338;2022-12-07T14:42:16;4.70;28.70
20231;DHT22;10274;49.022;9.338;2022-12-07T14:44:43;4.60;26.80
20231;DHT22;10274;49.022;9.338;2022-12-07T14:47:10;4.70;22.80
20231;DHT22;10274;49.022;9.338;2022-12-07T14:49:37;4.70;55.20
20231;DHT22;10274;49.022;9.338;2022-12-07T14:52:05;4.80;77.80
20231;DHT22;10274;49.022;9.338;2022-12-07T14:54:32;4.70;75.90
20231;DHT22;10274;49.022;9.338;2022-12-07T14:56:59;4.60;68.60
20231;DHT22;10274;49.022;9.338;2022-12-07T14:59:27;4.60;68.70
20231;DHT22;10274;49.022;9.338;2022-12-07T15:01:54;4.60;83.10
20231;DHT22;10274;49.022;9.338;2022-12-07T15:04:21;4.50;89.50
20231;DHT22;10274;49.022;9.338;2022-12-07T15:06:55;4.40;92.70
20231;DHT22;10274;49.022;9.338;2022-12-07T15:09:22;4.30;94.80
20231;DHT22;10274;49.022;9.338;2022-12-07T15:11:49;4.30;99.90
20231;DHT22;10274;49.022;9.338;2022-12-07T15:14:16;4.30;99.90
20231;DHT22;10274;49.022;9.338;2022-12-07T15:16:44;4.30;99.90
20231;DHT22;10274;49.022;9.338;2022-12-07T15:19:12;4.20;99.90
20231;DHT22;10274;49.022;9.338;2022-12-07T15:21:40;4.10;99.90
20231;DHT22;10274;49.022;9.338;2022-12-07T15:24:08;4.10;99.90
20231;DHT22;10274;49.022;9.338;2022-12-07T15:26:35;4.00;99.90
20231;DHT22;10274;49.022;9.338;2022-12-07T15:29:02;4.00;99.90
20231;DHT22;10274;49.022;9.338;2022-12-07T15:31:29;3.90;99.90
20231;DHT22;10274;49.022;9.338;2022-12-07T15:33:57;3.90;99.90
20231;DHT22;10274;49.022;9.338;2022-12-07T15:36:26;3.90;99.90
20231;DHT22;10274;49.022;9.338;2022-12-07T15:38:53;3.90;99.90
20231;DHT22;10274;49.022;9.338;2022-12-07T15:41:20;3.80;99.90
20231;DHT22;10274;49.022;9.338;2022-12-07T15:43:47;3.80;99.90
20231;DHT22;10274;49.022;9.338;2022-12-07T15:46:33;3.80;99.90
20231;DHT22;10274;49.022;9.338;2022-12-07T15:49:02;3.80;99.90
20231;DHT22;10274;49.022;9.338;2022-12-07T15:51:30;3.70;99.90
20231;DHT22;10274;49.022;9.338;2022-12-07T15:53:57;3.70;99.90
20231;DHT22;10274;49.022;9.338;2022-12-07T15:56:24;3.70;99.90
20231;DHT22;10274;49.022;9.338;2022-12-07T15:58:50;3.70;99.90
20231;DHT22;10274;49.022;9.338;2022-12-07T16:01:18;3.70;99.90
20231;DHT22;10274;49.022;9.338;2022-12-07T16:03:46;3.60;99.90
20231;DHT22;10274;49.022;9.338;2022-12-07T16:06:16;3.60;99.90
20231;DHT22;10274;49.022;9.338;2022-12-07T16:08:43;3.60;99.90
20231;DHT22;10274;49.022;9.338;2022-12-07T16:11:10;3.70;99.90
20231;DHT22;10274;49.022;9.338;2022-12-07T16:13:37;3.70;99.90
20231;DHT22;10274;49.022;9.338;2022-12-07T16:16:06;3.70;99.90
20231;DHT22;10274;49.022;9.338;2022-12-07T16:18:33;3.70;99.90
20231;DHT22;10274;49.022;9.338;2022-12-07T16:21:00;3.70;99.90
20231;DHT22;10274;49.022;9.338;2022-12-07T16:23:28;3.70;99.90